Terminal Aerodrome Forecast
Issued by NWS

Home | Current Version | Previous Version | Text Only | Print | Product List | Glossary On
Versions: 1 2 3 4 5 6 7 8 9 10 11 12 13 14
000
FTUS45 KGGW 310520
TAFOLF
TAF
KOLF 310520Z 3106/0106 VRB05KT P6SM VCTS SCT060CB BKN140
     FM310800 09005KT P6SM SCT140
     FM312100 27010KT P6SM FEW100
     FM010000 31011KT P6SM SKC=

USA.gov is the U.S. government's official web portal to all federal, state and local government web resources and services.